Terminal Aerodrome Forecast
Issued by NWS

Home | Current Version | Previous Version | Graphics & Text | Print | Product List | Glossary Off
Versions: 1 2 3 4 5 6 7 8 9 10 11 12 13 14

000
FTUS43 KDDC 260949 AAA
TAFGCK
TAF AMD
KGCK 260949Z 2610/2706 07004KT P6SM OVC013
      TEMPO 2611/2615 3SM BR OVC005
     FM261800 17011KT P6SM BKN045=

USA.gov is the U.S. government's official web portal to all federal, state and local government web resources and services.